Time;durP1;ratioP1;P1;durP2;ratioP2;P2;SDS_P1;SDS_P2;PMS_P1;PMS_P2;Temp;Humidity;BMP_temperature;BMP_pressure;BME280_temperature;BME280_humidity;BME280_pressure;Samples;Min_cycle;Max_cycle;Signal;HPM_P1;HPM_P2
2021/12/31 00:00:26;;;;;;;7.50;6.00;;;12.30;99.90;;;;;;5031133;28;20604;-76
2021/12/31 00:02:52;;;;;;;4.47;3.27;;;12.30;99.90;;;;;;5032407;28;20260;-77
2021/12/31 00:05:18;;;;;;;4.67;2.07;;;12.40;99.90;;;;;;5035203;28;20266;-76
2021/12/31 00:07:45;;;;;;;15.83;12.60;;;12.30;99.90;;;;;;5034885;28;20237;-77
2021/12/31 00:10:11;;;;;;;5.43;4.80;;;12.30;99.90;;;;;;5035225;28;20667;-77
2021/12/31 00:12:37;;;;;;;2.70;1.50;;;12.30;99.90;;;;;;5034939;28;20221;-76
2021/12/31 00:15:04;;;;;;;2.13;1.50;;;12.20;99.90;;;;;;5035070;28;20176;-76
2021/12/31 00:17:29;;;;;;;2.43;1.63;;;12.20;99.90;;;;;;5034411;28;20203;-76
2021/12/31 00:20:05;;;;;;;2.60;1.63;;;12.20;99.90;;;;;;5034840;28;20180;-76
2021/12/31 00:24:57;;;;;;;1.80;1.40;;;12.20;91.40;;;;;;5034616;28;20172;-77
2021/12/31 00:27:22;;;;;;;1.90;1.57;;;12.20;99.90;;;;;;5033870;28;20239;-77
2021/12/31 00:29:48;;;;;;;2.70;1.67;;;12.20;99.90;;;;;;5034700;28;20230;-76
2021/12/31 00:32:13;;;;;;;2.13;1.70;;;12.10;99.90;;;;;;5034629;28;20561;-76
2021/12/31 00:34:39;;;;;;;4.93;1.60;;;12.10;99.90;;;;;;5034644;28;20262;-76
2021/12/31 00:37:05;;;;;;;4.20;1.60;;;12.00;99.90;;;;;;5033804;28;20188;-76
2021/12/31 00:39:30;;;;;;;2.80;1.63;;;12.00;99.90;;;;;;5034348;28;20203;-76
2021/12/31 00:41:56;;;;;;;2.80;1.63;;;12.00;99.90;;;;;;5032952;28;20188;-76
2021/12/31 00:44:21;;;;;;;2.17;1.80;;;11.90;99.90;;;;;;5034395;28;20525;-76
2021/12/31 00:46:47;;;;;;;1.70;1.43;;;11.90;99.90;;;;;;5033973;28;20269;-76
2021/12/31 00:49:13;;;;;;;4.37;1.83;;;11.90;99.90;;;;;;5033877;28;20202;-76
2021/12/31 00:51:40;;;;;;;1.60;1.50;;;11.80;99.90;;;;;;5034260;28;20226;-76
2021/12/31 00:54:05;;;;;;;6.53;1.90;;;11.80;99.90;;;;;;5034169;28;20233;-77
2021/12/31 00:56:31;;;;;;;1.80;1.60;;;11.80;99.90;;;;;;5033958;28;20179;-76
2021/12/31 00:58:56;;;;;;;2.27;1.70;;;11.80;99.90;;;;;;5033443;28;20200;-76
2021/12/31 01:01:24;;;;;;;2.73;1.53;;;11.70;99.90;;;;;;5034109;28;20246;-77
2021/12/31 01:03:50;;;;;;;3.20;1.63;;;11.70;99.90;;;;;;5034101;28;20315;-76
2021/12/31 01:06:16;;;;;;;2.43;1.77;;;11.60;99.90;;;;;;5033762;28;20298;-76
2021/12/31 01:08:41;;;;;;;2.03;1.73;;;11.50;99.90;;;;;;5033525;28;20210;-76
2021/12/31 01:11:08;;;;;;;3.47;2.23;;;11.50;99.90;;;;;;5033737;28;20266;-76
2021/12/31 01:13:51;;;;;;;1.93;1.57;;;11.40;99.90;;;;;;5033636;28;20178;-76
2021/12/31 01:16:19;;;;;;;4.00;1.90;;;11.20;99.90;;;;;;5033480;28;20187;-77
2021/12/31 01:21:22;;;;;;;2.60;1.90;;;11.10;99.90;;;;;;5033778;28;20183;-76
2021/12/31 01:23:48;;;;;;;2.73;2.20;;;11.00;99.90;;;;;;5033964;28;20589;-77
2021/12/31 01:26:14;;;;;;;2.67;1.90;;;10.90;99.90;;;;;;5033828;28;20626;-76
2021/12/31 01:28:40;;;;;;;2.10;1.90;;;10.90;99.90;;;;;;5033330;28;20187;-76
2021/12/31 01:31:06;;;;;;;2.87;1.80;;;10.70;99.90;;;;;;5032313;28;20176;-76
2021/12/31 01:33:31;;;;;;;2.07;1.70;;;10.60;99.90;;;;;;5033649;28;20230;-76
2021/12/31 01:35:57;;;;;;;2.10;1.70;;;10.50;99.90;;;;;;5033795;28;20237;-76
2021/12/31 01:38:23;;;;;;;2.47;1.70;;;10.50;99.90;;;;;;5032979;28;20202;-76
2021/12/31 01:40:51;;;;;;;3.73;1.83;;;10.40;99.90;;;;;;5033650;28;20186;-75
2021/12/31 01:43:17;;;;;;;1.93;1.63;;;10.40;99.90;;;;;;5033447;28;20172;-76
2021/12/31 01:45:47;;;;;;;2.40;1.70;;;10.30;99.90;;;;;;5033352;28;20239;-76
2021/12/31 01:48:28;;;;;;;1.93;1.77;;;10.40;99.90;;;;;;5033086;28;20234;-76
2021/12/31 01:50:54;;;;;;;3.60;1.90;;;10.40;99.90;;;;;;5033657;28;20548;-77
2021/12/31 01:53:26;;;;;;;2.20;1.90;;;10.50;99.90;;;;;;5033362;28;20176;-76
2021/12/31 01:55:55;;;;;;;3.33;1.97;;;10.40;99.90;;;;;;5033642;28;20176;-76
2021/12/31 01:58:23;;;;;;;3.47;1.87;;;10.30;99.90;;;;;;5031283;28;20621;-76
2021/12/31 02:00:49;;;;;;;4.23;1.80;;;10.30;99.90;;;;;;5033335;28;20626;-76
2021/12/31 02:03:17;;;;;;;4.77;1.73;;;10.30;99.90;;;;;;5033059;28;20180;-76
2021/12/31 02:05:43;;;;;;;2.23;2.03;;;10.20;99.90;;;;;;5033289;28;20212;-77
2021/12/31 02:08:09;;;;;;;2.20;1.90;;;10.10;99.90;;;;;;5032521;28;20195;-77
2021/12/31 02:10:34;;;;;;;4.13;2.10;;;9.90;99.90;;;;;;5032979;28;20187;-77
2021/12/31 02:13:00;;;;;;;4.17;2.10;;;9.90;99.90;;;;;;5033048;28;20263;-77
2021/12/31 02:15:26;;;;;;;2.60;1.70;;;9.80;99.90;;;;;;5032760;28;20198;-77
2021/12/31 02:17:53;;;;;;;3.03;2.17;;;9.80;99.90;;;;;;5032229;28;20204;-76
2021/12/31 02:20:20;;;;;;;2.57;1.90;;;9.60;99.90;;;;;;5032930;28;20184;-76
2021/12/31 02:23:05;;;;;;;4.83;1.80;;;9.60;99.90;;;;;;5031442;28;20175;-77
2021/12/31 02:25:31;;;;;;;2.60;1.97;;;9.60;99.90;;;;;;5032380;28;20211;-77
2021/12/31 02:27:57;;;;;;;3.43;1.83;;;9.70;99.90;;;;;;5032127;28;20234;-76
2021/12/31 02:30:23;;;;;;;2.73;2.20;;;9.70;99.90;;;;;;5032283;28;20176;-77
2021/12/31 02:32:48;;;;;;;4.73;1.60;;;9.60;99.90;;;;;;5032757;28;20172;-76
2021/12/31 02:35:14;;;;;;;2.07;1.80;;;9.40;99.90;;;;;;5032396;28;20168;-76
2021/12/31 02:37:40;;;;;;;3.00;1.90;;;9.30;99.90;;;;;;5031957;28;20554;-76
2021/12/31 02:40:09;;;;;;;2.60;1.93;;;9.20;99.90;;;;;;5032466;28;20711;-76
2021/12/31 02:42:35;;;;;;;3.40;2.10;;;9.10;99.90;;;;;;5032815;28;20266;-77
2021/12/31 02:45:01;;;;;;;3.83;1.80;;;9.00;99.90;;;;;;5032528;28;20254;-77
2021/12/31 02:47:27;;;;;;;3.47;2.10;;;9.00;99.90;;;;;;5032591;28;20760;-77
2021/12/31 02:49:53;;;;;;;5.83;2.00;;;9.00;99.90;;;;;;5032565;28;20636;-77
2021/12/31 02:52:19;;;;;;;4.23;2.00;;;8.90;99.90;;;;;;5032292;28;20208;-76
2021/12/31 02:54:48;;;;;;;2.83;2.17;;;8.90;99.90;;;;;;5032070;28;20199;-77
2021/12/31 02:57:15;;;;;;;2.33;1.90;;;8.80;99.90;;;;;;5031527;28;20618;-76
2021/12/31 02:59:41;;;;;;;3.43;2.20;;;8.70;99.90;;;;;;5032165;28;20524;-76
2021/12/31 03:02:07;;;;;;;4.37;2.30;;;8.60;99.90;;;;;;5032859;28;20210;-77
2021/12/31 03:04:35;;;;;;;2.50;2.20;;;8.60;99.90;;;;;;5032697;28;20215;-77
2021/12/31 03:07:06;;;;;;;3.70;2.63;;;8.70;99.90;;;;;;5032354;28;20215;-77
2021/12/31 03:09:34;;;;;;;3.77;2.80;;;8.70;99.90;;;;;;5032592;28;20263;-76
2021/12/31 03:12:00;;;;;;;3.70;2.67;;;8.50;99.90;;;;;;5032763;28;20310;-76
2021/12/31 03:14:26;;;;;;;3.80;2.23;;;8.60;99.90;;;;;;5032204;28;20211;-77
2021/12/31 03:16:52;;;;;;;5.77;2.37;;;8.60;99.90;;;;;;5031726;28;20589;-77
2021/12/31 03:19:20;;;;;;;2.70;2.40;;;8.70;99.90;;;;;;5031381;28;20286;-76
2021/12/31 03:21:45;;;;;;;3.13;2.30;;;8.60;99.90;;;;;;5032029;28;20259;-76
2021/12/31 03:24:11;;;;;;;3.03;2.43;;;8.40;99.90;;;;;;5031706;28;20265;-77
2021/12/31 03:26:36;;;;;;;5.13;2.43;;;8.30;99.90;;;;;;5031442;28;20633;-76
2021/12/31 03:29:02;;;;;;;2.20;2.00;;;8.20;99.90;;;;;;5031272;28;20196;-77
2021/12/31 03:31:28;;;;;;;2.47;2.10;;;8.00;99.90;;;;;;5031763;28;20179;-77
2021/12/31 03:33:53;;;;;;;2.00;1.80;;;8.00;99.90;;;;;;5031700;28;20541;-77
2021/12/31 03:36:19;;;;;;;2.43;1.87;;;8.10;99.90;;;;;;5032130;28;20233;-77
2021/12/31 03:38:45;;;;;;;2.10;1.90;;;8.10;99.90;;;;;;5033869;28;20227;-77
2021/12/31 03:41:10;;;;;;;2.93;2.00;;;7.90;99.90;;;;;;5035594;28;20549;-77
2021/12/31 03:43:36;;;;;;;2.93;2.43;;;7.70;99.90;;;;;;5035769;28;20535;-77
2021/12/31 03:46:02;;;;;;;3.87;2.30;;;7.70;99.90;;;;;;5035843;28;20294;-77
2021/12/31 03:48:28;;;;;;;3.27;2.50;;;7.80;99.90;;;;;;5035308;28;20680;-77
2021/12/31 03:50:53;;;;;;;3.20;2.27;;;7.90;99.90;;;;;;5035325;28;20263;-77
2021/12/31 03:53:19;;;;;;;4.07;2.30;;;7.90;99.90;;;;;;5035614;28;20259;-76
2021/12/31 03:55:45;;;;;;;2.47;2.10;;;7.80;99.90;;;;;;5035830;28;20698;-75
2021/12/31 03:58:11;;;;;;;2.83;2.30;;;7.80;99.90;;;;;;5035644;28;20199;-75
2021/12/31 04:00:37;;;;;;;2.93;2.40;;;7.60;99.90;;;;;;5036133;28;20184;-77
2021/12/31 04:03:10;;;;;;;4.10;2.17;;;7.60;99.90;;;;;;5036360;28;20184;-76
2021/12/31 04:05:38;;;;;;;2.40;2.20;;;7.50;99.90;;;;;;5035324;28;20234;-76
2021/12/31 04:08:04;;;;;;;4.17;2.27;;;7.40;99.90;;;;;;5034696;28;20330;-77
2021/12/31 04:10:30;;;;;;;4.87;2.33;;;7.40;99.90;;;;;;5035413;28;20283;-76
2021/12/31 04:12:56;;;;;;;3.57;2.57;;;7.40;99.90;;;;;;5035428;28;20638;-76
2021/12/31 04:15:22;;;;;;;3.70;2.37;;;7.40;99.90;;;;;;5035488;28;20180;-76
2021/12/31 04:17:48;;;;;;;6.30;2.70;;;7.40;99.90;;;;;;5034688;28;20204;-76
2021/12/31 04:20:19;;;;;;;3.63;2.50;;;7.40;99.90;;;;;;5035062;28;20656;-77
2021/12/31 04:22:53;;;;;;;2.63;2.40;;;7.40;99.90;;;;;;5035104;28;20183;-76
2021/12/31 04:25:19;;;;;;;5.33;3.70;;;7.30;99.90;;;;;;5035026;28;20187;-76
2021/12/31 04:27:44;;;;;;;4.27;2.77;;;7.40;99.90;;;;;;5034999;28;20544;-77
2021/12/31 04:30:11;;;;;;;6.60;5.77;;;7.30;99.90;;;;;;5034986;28;20179;-76
2021/12/31 04:32:36;;;;;;;17.60;14.30;;;7.20;99.90;;;;;;5034949;28;20188;-75
2021/12/31 04:35:02;;;;;;;8.70;6.40;;;7.20;99.90;;;;;;5034827;28;20760;-76
2021/12/31 04:37:28;;;;;;;10.27;6.30;;;7.10;99.90;;;;;;5034095;28;20219;-76
2021/12/31 04:39:54;;;;;;;8.57;6.93;;;7.00;99.90;;;;;;5035017;28;20646;-76
2021/12/31 04:42:19;;;;;;;8.57;6.00;;;6.90;99.90;;;;;;5035047;28;20214;-76
2021/12/31 04:44:45;;;;;;;3.90;2.83;;;6.80;99.90;;;;;;5034727;28;20246;-76
2021/12/31 04:47:10;;;;;;;3.73;3.33;;;6.90;99.90;;;;;;5033963;28;20249;-76
2021/12/31 04:49:36;;;;;;;2.90;2.47;;;6.80;99.90;;;;;;5034217;28;20195;-77
2021/12/31 04:52:01;;;;;;;3.60;2.47;;;6.80;99.90;;;;;;5034183;28;20217;-76
2021/12/31 04:54:27;;;;;;;3.50;2.50;;;6.70;99.90;;;;;;5034864;28;20225;-76
2021/12/31 04:56:54;;;;;;;3.13;2.73;;;6.70;99.90;;;;;;5034748;28;20271;-77
2021/12/31 04:59:20;;;;;;;3.87;2.73;;;6.60;99.90;;;;;;5033156;28;20676;-76
2021/12/31 05:01:47;;;;;;;4.10;3.53;;;6.60;99.90;;;;;;5034322;28;20179;-77
2021/12/31 05:04:13;;;;;;;6.47;3.87;;;6.50;99.90;;;;;;5034221;28;20260;-76
2021/12/31 05:06:39;;;;;;;5.60;3.97;;;6.50;99.90;;;;;;5032941;28;20375;-76
2021/12/31 05:09:04;;;;;;;4.03;2.90;;;6.50;99.90;;;;;;5034062;28;20400;-76
2021/12/31 05:11:30;;;;;;;4.83;2.90;;;6.40;99.90;;;;;;5034391;28;20189;-76
2021/12/31 05:13:55;;;;;;;5.90;2.97;;;6.60;99.90;;;;;;5034211;28;20251;-77
2021/12/31 05:16:21;;;;;;;4.80;2.90;;;6.80;99.90;;;;;;5034503;28;20215;-77
2021/12/31 05:18:46;;;;;;;3.83;3.07;;;7.00;99.90;;;;;;5034461;28;20214;-76
2021/12/31 05:21:12;;;;;;;3.37;2.77;;;7.10;99.90;;;;;;5033833;28;20593;-76
2021/12/31 05:23:37;;;;;;;3.43;2.70;;;6.80;99.90;;;;;;5033997;28;20187;-76
2021/12/31 05:26:03;;;;;;;5.07;2.87;;;6.70;99.90;;;;;;5033745;28;20216;-76
2021/12/31 05:28:29;;;;;;;8.47;3.07;;;6.80;99.90;;;;;;5033258;28;20196;-76
2021/12/31 05:30:55;;;;;;;4.00;2.70;;;6.80;99.90;;;;;;5034229;28;20214;-77
2021/12/31 05:33:20;;;;;;;5.93;3.70;;;6.80;99.90;;;;;;5033659;28;20653;-77
2021/12/31 05:35:46;;;;;;;4.10;3.60;;;6.70;99.90;;;;;;5033675;28;20192;-77
2021/12/31 05:38:11;;;;;;;4.50;3.47;;;6.60;99.90;;;;;;5033848;28;20283;-76
2021/12/31 05:40:37;;;;;;;7.23;5.63;;;6.50;99.90;;;;;;5033750;28;20186;-76
2021/12/31 05:43:02;;;;;;;7.83;7.07;;;6.30;99.90;;;;;;5033254;28;20199;-77
2021/12/31 05:45:28;;;;;;;25.13;4.60;;;6.00;99.90;;;;;;5033455;28;20258;-76
2021/12/31 05:47:54;;;;;;;5.57;3.57;;;5.80;99.90;;;;;;5033039;28;20203;-76
2021/12/31 05:50:28;;;;;;;6.20;5.50;;;5.70;99.90;;;;;;5033375;28;20207;-76
2021/12/31 05:52:59;;;;;;;4.60;3.70;;;5.50;99.90;;;;;;5033580;28;20302;-77
2021/12/31 05:55:25;;;;;;;3.63;3.33;;;5.60;99.90;;;;;;5033050;28;20238;-75
2021/12/31 05:57:51;;;;;;;3.57;2.87;;;5.60;99.90;;;;;;5032759;28;20204;-76
2021/12/31 06:00:18;;;;;;;38.33;17.67;;;5.50;99.90;;;;;;5032533;28;20628;-76
2021/12/31 06:02:43;;;;;;;60.00;24.87;;;5.60;99.90;;;;;;5033539;28;20175;-76
2021/12/31 06:05:09;;;;;;;54.03;25.60;;;5.60;99.90;;;;;;5033557;28;20186;-76
2021/12/31 06:07:35;;;;;;;27.10;14.10;;;5.60;99.90;;;;;;5032590;28;20247;-77
2021/12/31 06:10:01;;;;;;;30.47;17.77;;;5.70;99.90;;;;;;5033312;28;20695;-77
2021/12/31 06:12:27;;;;;;;14.67;11.23;;;5.70;99.90;;;;;;5033143;28;20184;-76
2021/12/31 06:14:57;;;;;;;11.20;8.03;;;5.90;99.90;;;;;;5033269;28;20696;-77
2021/12/31 06:17:25;;;;;;;4.57;3.60;;;5.90;99.90;;;;;;5032548;28;20860;-76
2021/12/31 06:19:51;;;;;;;5.97;3.27;;;5.90;99.90;;;;;;5033524;28;20172;-77
2021/12/31 06:22:16;;;;;;;4.10;3.70;;;5.80;99.90;;;;;;5033112;28;20180;-77
2021/12/31 06:24:42;;;;;;;6.17;4.70;;;5.70;99.90;;;;;;5032926;28;20167;-77
2021/12/31 06:27:08;;;;;;;6.63;3.50;;;5.60;99.90;;;;;;5032183;28;20215;-77
2021/12/31 06:29:34;;;;;;;7.83;4.80;;;5.70;99.90;;;;;;5032750;28;20171;-77
2021/12/31 06:31:59;;;;;;;4.13;3.40;;;5.70;99.90;;;;;;5032986;28;20180;-77
2021/12/31 06:34:25;;;;;;;3.77;3.20;;;5.70;99.90;;;;;;5032925;28;20180;-77
2021/12/31 06:36:50;;;;;;;7.20;3.73;;;5.60;99.90;;;;;;5032308;28;20199;-77
2021/12/31 06:39:16;;;;;;;4.60;3.00;;;5.50;99.90;;;;;;5032231;28;20203;-77
2021/12/31 06:41:42;;;;;;;4.77;4.00;;;5.40;99.90;;;;;;5032525;28;20211;-77
2021/12/31 06:44:07;;;;;;;5.67;3.40;;;5.50;99.90;;;;;;5032655;28;20263;-75
2021/12/31 06:46:33;;;;;;;3.43;3.00;;;5.60;99.90;;;;;;5032432;28;20207;-76
2021/12/31 06:48:58;;;;;;;5.13;3.00;;;5.70;99.90;;;;;;5032455;28;20200;-77
2021/12/31 06:51:24;;;;;;;2.57;2.37;;;5.70;99.90;;;;;;5032764;28;20186;-76
2021/12/31 06:53:50;;;;;;;3.17;2.47;;;5.70;99.90;;;;;;5032637;28;20672;-77
2021/12/31 06:56:15;;;;;;;2.50;2.30;;;5.50;99.90;;;;;;5032682;28;20267;-76
2021/12/31 06:58:41;;;;;;;2.40;2.20;;;5.40;99.90;;;;;;5032071;28;20657;-78
2021/12/31 07:01:06;;;;;;;2.60;2.40;;;5.30;99.90;;;;;;5032510;28;20190;-77
2021/12/31 07:03:32;;;;;;;2.73;2.10;;;5.30;99.90;;;;;;5032941;28;20176;-77
2021/12/31 07:05:58;;;;;;;2.30;2.10;;;5.30;99.90;;;;;;5033040;28;20211;-77
2021/12/31 07:08:24;;;;;;;4.07;3.00;;;5.30;99.90;;;;;;5035602;28;20219;-78
2021/12/31 07:10:49;;;;;;;4.10;3.70;;;5.30;99.90;;;;;;5044403;28;20237;-76
2021/12/31 07:13:15;;;;;;;4.37;3.73;;;5.70;99.90;;;;;;5044599;28;20592;-77
2021/12/31 07:15:44;;;;;;;4.97;4.13;;;5.70;99.90;;;;;;5037372;28;20183;-78
2021/12/31 07:18:10;;;;;;;5.30;4.80;;;5.70;99.90;;;;;;5033183;28;20245;-77
2021/12/31 07:20:36;;;;;;;6.20;5.60;;;6.00;99.90;;;;;;5031839;28;20566;-77
2021/12/31 07:23:09;;;;;;;6.53;5.17;;;5.60;99.90;;;;;;5037110;28;20258;-78
2021/12/31 07:25:35;;;;;;;6.03;5.03;;;5.70;99.90;;;;;;5034582;28;20180;-77
2021/12/31 07:28:00;;;;;;;4.47;3.93;;;5.50;99.90;;;;;;5031351;28;20750;-77
2021/12/31 07:30:26;;;;;;;4.83;4.33;;;5.40;99.90;;;;;;5031607;28;20183;-76
2021/12/31 07:32:52;;;;;;;4.67;3.83;;;5.30;99.90;;;;;;5032226;28;20175;-76
2021/12/31 07:35:17;;;;;;;7.37;4.30;;;5.30;99.90;;;;;;5032561;28;20237;-76
2021/12/31 07:37:43;;;;;;;4.57;4.03;;;5.50;99.90;;;;;;5032044;28;20199;-77
2021/12/31 07:40:11;;;;;;;6.60;5.27;;;5.60;99.90;;;;;;5032831;28;20175;-77
2021/12/31 07:42:37;;;;;;;13.63;10.40;;;6.00;99.90;;;;;;5039579;28;20188;-78
2021/12/31 07:45:04;;;;;;;11.70;9.00;;;6.50;99.90;;;;;;5041417;28;20227;-78
2021/12/31 07:47:30;;;;;;;9.97;5.70;;;6.80;99.90;;;;;;5042917;28;20214;-79
2021/12/31 07:49:55;;;;;;;7.07;5.53;;;7.00;99.90;;;;;;5046486;28;20205;-78
2021/12/31 07:52:21;;;;;;;7.23;4.83;;;7.20;99.90;;;;;;5051866;28;20179;-77
2021/12/31 07:54:46;;;;;;;25.40;3.67;;;7.60;99.90;;;;;;5052046;28;20179;-77
2021/12/31 07:57:12;;;;;;;3.30;2.73;;;8.10;1.00;;;;;;5039795;28;20176;-76
